createdAt,value
2018-04-15T00:02:03.545Z,81.40
2018-04-15T00:04:32.893Z,79.40
2018-04-15T00:07:02.068Z,84.00
2018-04-15T00:09:31.213Z,79.00
2018-04-15T00:12:00.292Z,80.40
2018-04-15T00:14:31.933Z,78.80
2018-04-15T00:17:00.972Z,76.00
2018-04-15T00:19:30.038Z,80.00
2018-04-15T00:21:58.887Z,78.00
2018-04-15T00:24:27.706Z,80.60
2018-04-15T00:26:56.815Z,81.00
2018-04-15T00:29:25.875Z,81.60
2018-04-15T00:32:03.164Z,81.40
2018-04-15T00:34:32.106Z,80.40
2018-04-15T00:37:01.137Z,80.20
2018-04-15T00:39:30.451Z,77.00
2018-04-15T00:41:59.582Z,76.40
2018-04-15T00:44:28.400Z,80.00
2018-04-15T00:46:57.399Z,81.80
2018-04-15T00:49:26.728Z,80.40
2018-04-15T00:51:55.852Z,82.60
2018-04-15T00:54:25.028Z,86.80
2018-04-15T00:56:53.824Z,94.20
2018-04-15T00:59:22.834Z,105.00
2018-04-15T01:01:51.867Z,102.80
2018-04-15T01:04:21.017Z,107.20
2018-04-15T01:06:50.305Z,97.80
2018-04-15T01:09:19.601Z,104.40
2018-04-15T01:11:49.222Z,97.80
2018-04-15T01:14:18.477Z,100.80
2018-04-15T01:16:47.870Z,109.00
2018-04-15T01:19:17.083Z,103.20
2018-04-15T01:21:46.431Z,95.20
2018-04-15T01:24:15.740Z,102.20
2018-04-15T01:26:45.060Z,98.60
2018-04-15T01:29:14.085Z,99.60
2018-04-15T01:31:43.695Z,103.60
2018-04-15T01:34:12.746Z,91.80
2018-04-15T01:36:42.230Z,119.80
2018-04-15T01:39:11.412Z,147.20
2018-04-15T01:41:40.435Z,168.20
2018-04-15T01:44:09.794Z,154.80
2018-04-15T01:46:40.717Z,162.20
2018-04-15T01:49:10.242Z,147.80
2018-04-15T01:51:39.186Z,148.40
2018-04-15T01:54:08.062Z,147.40
2018-04-15T01:56:37.175Z,149.00
2018-04-15T01:59:06.090Z,119.40
2018-04-15T02:01:35.264Z,128.20
2018-04-15T02:04:04.543Z,134.00
2018-04-15T02:06:33.741Z,125.00
2018-04-15T02:09:03.063Z,122.20
2018-04-15T02:11:32.489Z,130.40
2018-04-15T02:14:01.759Z,134.20
2018-04-15T02:16:31.165Z,117.00
2018-04-15T02:19:00.062Z,130.80
2018-04-15T02:21:28.959Z,127.40
2018-04-15T02:23:58.211Z,128.00
2018-04-15T02:26:27.355Z,128.60
2018-04-15T02:31:50.986Z,119.40
2018-04-15T02:34:20.514Z,120.00
2018-04-15T02:36:50.094Z,114.40
2018-04-15T02:39:19.353Z,111.20
2018-04-15T02:41:48.590Z,104.00
2018-04-15T02:44:18.157Z,104.60
2018-04-15T02:46:48.115Z,105.00
2018-04-15T02:49:17.311Z,95.60
2018-04-15T02:51:46.443Z,93.60
2018-04-15T02:54:15.870Z,97.60
2018-04-15T02:56:44.571Z,87.20
2018-04-15T02:59:13.644Z,90.60
2018-04-15T03:01:43.025Z,92.00
2018-04-15T03:04:12.604Z,90.40
2018-04-15T03:06:41.881Z,88.60
2018-04-15T03:09:10.713Z,87.80
2018-04-15T03:11:39.979Z,85.20
2018-04-15T03:14:09.152Z,81.40
2018-04-15T03:16:38.287Z,80.80
2018-04-15T03:19:07.458Z,81.00
2018-04-15T03:21:36.592Z,87.00
2018-04-15T03:24:05.812Z,81.20
2018-04-15T03:26:35.131Z,85.20
2018-04-15T03:29:04.198Z,86.80
2018-04-15T03:31:33.416Z,81.60
2018-04-15T03:34:02.855Z,81.60
2018-04-15T03:36:32.022Z,77.20
2018-04-15T03:39:01.286Z,77.20
2018-04-15T03:41:30.373Z,77.40
2018-04-15T03:43:59.775Z,79.20
2018-04-15T03:46:28.946Z,78.00
2018-04-15T03:48:58.530Z,78.60
2018-04-15T03:51:27.749Z,73.60
2018-04-15T03:53:56.379Z,76.20
2018-04-15T03:56:25.535Z,77.20
2018-04-15T03:58:55.047Z,73.00
2018-04-15T04:01:24.469Z,74.80
2018-04-15T04:03:53.599Z,78.60
2018-04-15T04:06:22.719Z,74.00
2018-04-15T04:08:51.634Z,73.60
2018-04-15T04:11:20.809Z,72.80
2018-04-15T04:13:51.124Z,73.80
2018-04-15T04:16:20.532Z,74.40
2018-04-15T04:19:01.662Z,71.80
2018-04-15T04:21:41.972Z,73.60
2018-04-15T04:24:23.386Z,72.00
2018-04-15T04:26:52.383Z,69.80
2018-04-15T04:29:21.688Z,66.60
2018-04-15T04:31:50.797Z,68.60
2018-04-15T04:34:20.327Z,69.20
2018-04-15T04:36:49.602Z,72.20
2018-04-15T04:39:18.905Z,68.80
2018-04-15T04:41:48.343Z,68.00
2018-04-15T04:44:17.285Z,71.40
2018-04-15T04:46:54.588Z,68.80
2018-04-15T04:52:18.426Z,68.20
2018-04-15T04:54:47.431Z,68.00
2018-04-15T04:57:16.623Z,67.60
2018-04-15T04:59:45.565Z,68.40
2018-04-15T05:02:14.317Z,67.20
2018-04-15T05:04:43.352Z,67.20
2018-04-15T05:07:12.515Z,68.40
2018-04-15T05:09:43.655Z,67.80
2018-04-15T05:12:13.067Z,66.80
2018-04-15T05:14:42.802Z,63.40
2018-04-15T05:17:12.040Z,64.00
2018-04-15T05:19:41.550Z,65.20
2018-04-15T05:22:10.541Z,64.40
2018-04-15T05:24:39.624Z,62.60
2018-04-15T05:27:08.614Z,61.20
2018-04-15T05:29:38.006Z,64.40
2018-04-15T05:35:04.120Z,60.40
2018-04-15T05:37:33.603Z,67.60
2018-04-15T05:40:02.780Z,60.60
2018-04-15T05:42:32.183Z,68.60
2018-04-15T05:45:01.445Z,67.60
2018-04-15T05:47:30.447Z,67.20
2018-04-15T05:49:59.568Z,68.60
2018-04-15T05:52:29.011Z,67.40
2018-04-15T05:54:58.478Z,71.00
2018-04-15T05:57:28.009Z,74.00
2018-04-15T05:59:57.293Z,71.80
2018-04-15T06:02:26.768Z,68.80
2018-04-15T06:04:55.901Z,72.80
2018-04-15T06:07:25.133Z,73.00
2018-04-15T06:09:54.553Z,77.20
2018-04-15T06:12:23.665Z,75.60
2018-04-15T06:15:07.101Z,80.60
2018-04-15T06:17:40.173Z,81.00
2018-04-15T06:20:09.342Z,78.60
2018-04-15T06:22:38.652Z,65.40
2018-04-15T06:25:08.064Z,68.80
2018-04-15T06:27:37.348Z,69.60
2018-04-15T06:30:06.898Z,66.40
2018-04-15T06:32:36.105Z,71.00
2018-04-15T06:35:05.570Z,68.80
2018-04-15T06:37:40.650Z,65.00
2018-04-15T06:40:09.988Z,68.80
2018-04-15T06:42:39.216Z,68.40
2018-04-15T06:45:08.411Z,68.00
2018-04-15T06:47:37.620Z,70.00
2018-04-15T06:50:06.777Z,68.80
2018-04-15T06:52:37.003Z,70.00
2018-04-15T06:55:06.124Z,64.60
2018-04-15T06:57:35.233Z,63.20
2018-04-15T07:00:06.043Z,40.80
2018-04-15T07:02:35.349Z,65.20
2018-04-15T07:05:04.579Z,59.20
2018-04-15T07:07:33.913Z,62.60
2018-04-15T07:10:03.397Z,59.80
2018-04-15T07:12:32.163Z,61.80
2018-04-15T07:15:01.447Z,55.80
2018-04-15T07:17:30.716Z,56.00
2018-04-15T07:20:00.047Z,57.40
2018-04-15T07:22:29.435Z,60.20
2018-04-15T07:24:58.809Z,46.20
2018-04-15T07:27:28.448Z,59.20
2018-04-15T07:29:57.370Z,54.00
2018-04-15T07:32:26.818Z,61.20
2018-04-15T07:34:55.835Z,57.40
2018-04-15T07:37:25.244Z,53.40
2018-04-15T07:39:54.515Z,54.80
2018-04-15T07:42:23.679Z,58.00
2018-04-15T07:44:52.766Z,53.40
2018-04-15T07:47:22.127Z,52.60
2018-04-15T07:49:51.272Z,53.40
2018-04-15T07:52:20.686Z,53.00
2018-04-15T07:54:50.267Z,55.60
2018-04-15T07:57:19.497Z,56.20
2018-04-15T07:59:48.722Z,50.40
2018-04-15T08:02:17.962Z,57.60
2018-04-15T08:04:47.011Z,52.40
2018-04-15T08:07:16.270Z,54.00
2018-04-15T08:09:45.426Z,48.40
2018-04-15T08:12:14.847Z,44.40
2018-04-15T08:14:44.254Z,48.60
2018-04-15T08:17:13.624Z,40.60
2018-04-15T08:19:42.695Z,44.80
2018-04-15T08:22:12.236Z,43.60
2018-04-15T08:24:41.388Z,43.40
2018-04-15T08:27:10.278Z,37.40
2018-04-15T08:29:39.443Z,42.20
2018-04-15T08:32:08.667Z,42.60
2018-04-15T08:34:38.022Z,40.00
2018-04-15T08:37:07.179Z,39.20
2018-04-15T08:39:36.563Z,43.80
2018-04-15T08:42:05.967Z,44.20
2018-04-15T08:44:34.971Z,35.80
2018-04-15T08:47:04.513Z,38.80
2018-04-15T08:49:33.957Z,39.60
2018-04-15T08:52:03.027Z,40.40
2018-04-15T08:54:32.331Z,36.60
2018-04-15T08:57:01.864Z,35.00
2018-04-15T08:59:31.284Z,34.20
2018-04-15T09:02:00.844Z,38.40
2018-04-15T09:04:31.232Z,40.40
2018-04-15T09:07:01.079Z,35.80
2018-04-15T09:09:30.356Z,40.80
2018-04-15T09:12:03.000Z,38.20
2018-04-15T09:14:33.443Z,44.40
2018-04-15T09:17:02.986Z,38.00
2018-04-15T09:19:32.607Z,34.80
2018-04-15T09:22:02.428Z,44.00
2018-04-15T09:24:31.997Z,38.60
2018-04-15T09:27:01.565Z,39.60
2018-04-15T09:29:31.146Z,36.40
2018-04-15T09:32:00.463Z,33.00
2018-04-15T09:34:30.711Z,38.40
2018-04-15T09:37:00.438Z,35.80
2018-04-15T09:39:30.336Z,39.80
2018-04-15T09:41:59.288Z,41.40
2018-04-15T09:44:30.035Z,37.20
2018-04-15T09:46:59.094Z,34.60
2018-04-15T09:49:28.367Z,38.40
2018-04-15T09:51:58.018Z,38.20
2018-04-15T09:54:27.593Z,38.40
2018-04-15T09:56:57.016Z,38.80
2018-04-15T09:59:27.651Z,38.80
2018-04-15T10:01:57.160Z,35.40
2018-04-15T10:04:27.216Z,39.00
2018-04-15T10:06:56.655Z,37.60
2018-04-15T10:09:26.325Z,31.20
2018-04-15T10:11:55.882Z,39.20
2018-04-15T10:14:25.385Z,38.40
2018-04-15T10:16:54.674Z,34.20
2018-04-15T10:19:23.810Z,35.20
2018-04-15T10:21:53.789Z,36.40
2018-04-15T10:24:23.154Z,36.20
2018-04-15T10:26:52.357Z,40.00
2018-04-15T10:29:21.412Z,36.80
2018-04-15T10:31:50.812Z,33.60
2018-04-15T10:34:20.601Z,35.20
2018-04-15T10:36:49.823Z,36.80
2018-04-15T10:39:19.643Z,36.20
2018-04-15T10:41:48.797Z,32.80
2018-04-15T10:44:18.074Z,36.00
2018-04-15T10:46:47.851Z,34.40
2018-04-15T10:49:18.115Z,38.80
2018-04-15T10:51:47.154Z,35.00
2018-04-15T10:54:16.698Z,38.60
2018-04-15T10:56:45.880Z,33.00
2018-04-15T10:59:15.298Z,36.40
2018-04-15T11:01:44.694Z,37.00
2018-04-15T11:04:14.335Z,38.40
2018-04-15T11:06:43.416Z,35.60
2018-04-15T11:09:12.535Z,31.20
2018-04-15T11:11:41.863Z,40.40
2018-04-15T11:14:11.169Z,38.40
2018-04-15T11:16:40.506Z,37.20
2018-04-15T11:19:09.677Z,36.40
2018-04-15T11:21:39.072Z,34.40
2018-04-15T11:24:08.832Z,37.00
2018-04-15T11:26:38.386Z,32.60
2018-04-15T11:29:07.979Z,38.20
2018-04-15T11:31:37.235Z,36.60
2018-04-15T11:34:06.655Z,36.60
2018-04-15T11:36:36.079Z,36.00
2018-04-15T11:39:05.451Z,36.00
2018-04-15T11:41:34.815Z,37.60
2018-04-15T11:44:04.247Z,36.60
2018-04-15T11:46:33.361Z,38.80
2018-04-15T11:49:03.107Z,41.00
2018-04-15T11:51:32.648Z,34.00
2018-04-15T11:54:01.901Z,38.40
2018-04-15T11:56:31.320Z,42.40
2018-04-15T11:59:00.454Z,42.20
2018-04-15T12:01:29.845Z,34.80
2018-04-15T12:03:58.712Z,39.20
2018-04-15T12:06:27.847Z,37.00
2018-04-15T12:08:57.937Z,42.40
2018-04-15T12:11:27.199Z,37.20
2018-04-15T12:13:56.548Z,37.20
2018-04-15T12:16:25.584Z,41.00
2018-04-15T12:18:56.000Z,41.40
2018-04-15T12:21:25.520Z,44.80
2018-04-15T12:23:56.205Z,45.80
2018-04-15T12:26:25.584Z,39.60
2018-04-15T12:28:54.771Z,39.40
2018-04-15T12:31:24.133Z,39.80
2018-04-15T12:34:08.128Z,44.80
2018-04-15T12:36:37.311Z,49.20
2018-04-15T12:39:07.539Z,47.20
2018-04-15T12:41:36.575Z,43.60
2018-04-15T12:44:06.448Z,48.00
2018-04-15T12:46:36.279Z,42.80
2018-04-15T12:49:06.327Z,49.40
2018-04-15T12:51:37.802Z,46.20
2018-04-15T12:54:07.067Z,47.60
2018-04-15T12:56:36.464Z,40.80
2018-04-15T12:59:05.601Z,43.60
2018-04-15T13:01:34.934Z,45.00
2018-04-15T13:04:04.049Z,48.60
2018-04-15T13:06:33.106Z,47.20
2018-04-15T13:09:02.530Z,45.80
2018-04-15T13:11:32.093Z,42.40
2018-04-15T13:14:01.447Z,46.20
2018-04-15T13:16:30.612Z,45.20
2018-04-15T13:18:59.935Z,46.80
2018-04-15T13:21:29.708Z,44.80
2018-04-15T13:23:59.136Z,42.40
2018-04-15T13:26:28.114Z,44.60
2018-04-15T13:28:57.526Z,42.00
2018-04-15T13:31:26.600Z,45.00
2018-04-15T13:33:55.828Z,41.00
2018-04-15T13:36:25.242Z,46.20
2018-04-15T13:38:54.491Z,47.40
2018-04-15T13:41:23.684Z,48.00
2018-04-15T13:43:53.114Z,44.00
2018-04-15T13:46:22.424Z,50.20
2018-04-15T13:48:52.100Z,42.40
2018-04-15T13:51:21.831Z,46.00
2018-04-15T13:53:51.219Z,45.00
2018-04-15T13:56:20.197Z,49.40
2018-04-15T13:58:49.696Z,48.00
2018-04-15T14:01:19.128Z,48.00
2018-04-15T14:03:48.990Z,46.40
2018-04-15T14:06:18.559Z,48.60
2018-04-15T14:08:47.969Z,51.20
2018-04-15T14:11:17.472Z,46.00
2018-04-15T14:13:46.844Z,42.20
2018-04-15T14:16:16.011Z,48.80
2018-04-15T14:18:45.368Z,49.20
2018-04-15T14:21:14.826Z,46.60
2018-04-15T14:23:44.339Z,41.20
2018-04-15T14:26:13.862Z,49.00
2018-04-15T14:28:43.584Z,49.60
2018-04-15T14:31:12.803Z,51.40
2018-04-15T14:33:41.896Z,44.20
2018-04-15T14:36:11.279Z,45.80
2018-04-15T14:38:40.467Z,48.80
2018-04-15T14:41:09.747Z,49.60
2018-04-15T14:43:39.029Z,49.80
2018-04-15T14:46:08.310Z,52.80
2018-04-15T14:48:37.241Z,51.80
2018-04-15T14:51:06.253Z,52.00
2018-04-15T14:53:35.513Z,51.80
2018-04-15T14:56:04.843Z,58.20
2018-04-15T14:58:33.724Z,57.00
2018-04-15T15:01:02.727Z,57.80
2018-04-15T15:03:31.476Z,56.40
2018-04-15T15:06:00.289Z,41.80
2018-04-15T15:08:29.567Z,44.80
2018-04-15T15:10:58.612Z,48.80
2018-04-15T15:13:27.820Z,46.60
2018-04-15T15:15:57.297Z,54.00
2018-04-15T15:18:26.375Z,54.80
2018-04-15T15:20:55.945Z,57.80
2018-04-15T15:23:25.035Z,57.00
2018-04-15T15:25:54.467Z,59.60
2018-04-15T15:28:23.913Z,57.20
2018-04-15T15:30:54.159Z,58.60
2018-04-15T15:33:23.438Z,58.40
2018-04-15T15:35:52.733Z,64.60
2018-04-15T15:38:21.945Z,63.00
2018-04-15T15:40:51.530Z,64.00
2018-04-15T15:43:20.660Z,61.60
2018-04-15T15:45:49.473Z,64.80
2018-04-15T15:48:20.329Z,57.00
2018-04-15T15:50:49.646Z,55.80
2018-04-15T15:53:19.075Z,56.80
2018-04-15T15:55:48.368Z,66.80
2018-04-15T15:58:17.561Z,57.20
2018-04-15T16:00:46.718Z,63.20
2018-04-15T16:03:16.048Z,63.00
2018-04-15T16:05:44.980Z,62.20
2018-04-15T16:08:14.354Z,65.60
2018-04-15T16:10:43.656Z,66.20
2018-04-15T16:13:12.646Z,68.00
2018-04-15T16:15:42.682Z,65.20
2018-04-15T16:18:13.145Z,66.80
2018-04-15T16:20:44.419Z,63.80
2018-04-15T16:23:13.532Z,68.20
2018-04-15T16:25:43.747Z,67.40
2018-04-15T16:28:13.247Z,70.60
2018-04-15T16:30:42.570Z,70.40
2018-04-15T16:33:12.172Z,73.20
2018-04-15T16:35:42.135Z,68.80
2018-04-15T16:38:11.775Z,70.60
2018-04-15T16:40:41.174Z,72.20
2018-04-15T16:43:10.904Z,70.60
2018-04-15T16:45:40.157Z,74.80
2018-04-15T16:48:09.551Z,65.20
2018-04-15T16:50:39.787Z,69.80
2018-04-15T16:53:09.393Z,76.00
2018-04-15T16:55:39.092Z,74.20
2018-04-15T16:58:08.428Z,74.20
2018-04-15T17:00:37.954Z,76.20
2018-04-15T17:03:07.738Z,70.80
2018-04-15T17:05:37.512Z,72.60
2018-04-15T17:08:07.516Z,75.80
2018-04-15T17:10:36.905Z,77.40
2018-04-15T17:13:07.658Z,76.80
2018-04-15T17:15:38.167Z,82.60
2018-04-15T17:18:07.723Z,74.60
2018-04-15T17:20:38.264Z,75.80
2018-04-15T17:23:07.451Z,77.60
2018-04-15T17:25:37.210Z,74.20
2018-04-15T17:28:06.807Z,74.40
2018-04-15T17:30:36.404Z,75.00
2018-04-15T17:33:05.820Z,75.60
2018-04-15T17:35:34.967Z,73.20
2018-04-15T17:38:03.976Z,75.40
2018-04-15T17:40:33.952Z,73.00
2018-04-15T17:43:04.786Z,72.80
2018-04-15T17:45:34.179Z,70.80
2018-04-15T17:48:03.632Z,75.20
2018-04-15T17:50:32.815Z,75.60
2018-04-15T17:53:03.909Z,74.20
2018-04-15T17:55:33.446Z,71.60
2018-04-15T17:58:03.572Z,75.00
2018-04-15T18:00:33.382Z,72.80
2018-04-15T18:03:02.926Z,75.00
2018-04-15T18:05:32.433Z,73.00
2018-04-15T18:08:02.918Z,69.60
2018-04-15T18:10:31.913Z,75.60
2018-04-15T18:13:02.474Z,74.20
2018-04-15T18:15:31.950Z,75.60
2018-04-15T18:18:01.056Z,71.60
2018-04-15T18:20:31.283Z,75.40
2018-04-15T18:23:02.233Z,76.60
2018-04-15T18:25:32.606Z,73.40
2018-04-15T18:28:02.159Z,74.80
2018-04-15T18:30:31.836Z,75.00
2018-04-15T18:33:01.487Z,77.40
2018-04-15T18:35:30.902Z,75.00
2018-04-15T18:38:00.089Z,75.40
2018-04-15T18:40:29.361Z,72.60
2018-04-15T18:42:58.697Z,73.20
2018-04-15T18:45:28.010Z,75.40
2018-04-15T18:47:57.352Z,76.80
2018-04-15T18:50:27.189Z,79.00
2018-04-15T18:52:56.807Z,73.00
2018-04-15T18:55:25.997Z,73.20
2018-04-15T18:57:58.139Z,76.60
2018-04-15T19:00:28.403Z,72.60
2018-04-15T19:02:57.751Z,74.20
2018-04-15T19:05:27.897Z,79.40
2018-04-15T19:07:57.453Z,72.00
2018-04-15T19:10:26.630Z,77.60
2018-04-15T19:12:55.945Z,73.80
2018-04-15T19:15:25.472Z,74.80
2018-04-15T19:17:54.697Z,77.60
2018-04-15T19:20:23.878Z,76.40
2018-04-15T19:22:53.399Z,72.80
2018-04-15T19:25:22.769Z,75.00
2018-04-15T19:27:52.540Z,75.80
2018-04-15T19:30:22.431Z,73.80
2018-04-15T19:32:52.169Z,72.40
2018-04-15T19:35:21.450Z,78.00
2018-04-15T19:38:01.886Z,73.00
2018-04-15T19:40:31.332Z,74.00
2018-04-15T19:43:00.636Z,75.80
2018-04-15T19:45:30.167Z,75.00
2018-04-15T19:47:59.466Z,73.20
2018-04-15T19:50:28.983Z,75.00
2018-04-15T19:52:58.717Z,77.60
2018-04-15T19:55:29.280Z,71.00
2018-04-15T19:57:58.548Z,75.60
2018-04-15T20:00:29.316Z,72.80
2018-04-15T20:02:58.438Z,74.80
2018-04-15T20:05:27.766Z,78.80
2018-04-15T20:07:57.107Z,75.00
2018-04-15T20:10:26.334Z,75.60
2018-04-15T20:13:05.141Z,74.80
2018-04-15T20:15:34.512Z,77.60
2018-04-15T20:18:04.073Z,77.20
2018-04-15T20:20:33.470Z,77.80
2018-04-15T20:23:02.598Z,74.80
2018-04-15T20:25:32.092Z,74.60
2018-04-15T20:28:01.487Z,78.80
2018-04-15T20:30:32.017Z,78.00
2018-04-15T20:33:01.006Z,77.80
2018-04-15T20:35:30.412Z,78.20
2018-04-15T20:37:59.760Z,78.00
2018-04-15T20:43:24.637Z,79.40
2018-04-15T20:45:53.652Z,78.80
2018-04-15T20:48:22.952Z,76.80
2018-04-15T20:50:53.063Z,77.40
2018-04-15T20:53:22.479Z,76.40
2018-04-15T20:55:51.724Z,77.40
2018-04-15T20:58:21.028Z,80.80
2018-04-15T21:00:50.412Z,76.80
2018-04-15T21:03:19.527Z,74.80
2018-04-15T21:05:48.493Z,84.20
2018-04-15T21:08:17.570Z,76.00
2018-04-15T21:10:46.830Z,77.40
2018-04-15T21:13:16.195Z,80.80
2018-04-15T21:15:45.616Z,75.80
2018-04-15T21:18:14.664Z,78.20
2018-04-15T21:20:44.129Z,77.00
2018-04-15T21:23:13.457Z,78.00
2018-04-15T21:25:42.530Z,79.00
2018-04-15T21:28:11.940Z,77.60
2018-04-15T21:30:41.451Z,79.80
2018-04-15T21:33:10.664Z,77.40
2018-04-15T21:35:39.679Z,77.40
2018-04-15T21:38:08.892Z,78.20
2018-04-15T21:40:38.109Z,81.20
2018-04-15T21:43:07.599Z,77.20
2018-04-15T21:45:36.740Z,78.60
2018-04-15T21:48:06.582Z,78.00
2018-04-15T21:50:35.460Z,77.80
2018-04-15T21:53:04.878Z,80.40
2018-04-15T21:55:33.907Z,76.40
2018-04-15T21:58:03.174Z,76.80
2018-04-15T22:00:32.686Z,78.80
2018-04-15T22:03:02.127Z,78.00
2018-04-15T22:05:32.049Z,77.00
2018-04-15T22:08:01.085Z,77.20
2018-04-15T22:10:30.038Z,76.60
2018-04-15T22:13:10.166Z,76.40
2018-04-15T22:15:39.393Z,82.20
2018-04-15T22:18:08.988Z,75.40
2018-04-15T22:23:36.066Z,77.00
2018-04-15T22:26:05.504Z,76.80
2018-04-15T22:28:35.164Z,77.60
2018-04-15T22:31:05.006Z,77.00
2018-04-15T22:33:34.566Z,76.20
2018-04-15T22:36:03.948Z,74.60
2018-04-15T22:38:33.576Z,76.20
2018-04-15T22:41:02.770Z,72.60
2018-04-15T22:43:31.880Z,74.00
2018-04-15T22:46:01.223Z,77.60
2018-04-15T22:48:37.157Z,72.00
2018-04-15T22:51:06.463Z,77.00
2018-04-15T22:53:35.766Z,76.60
2018-04-15T22:56:11.112Z,76.60
2018-04-15T22:58:46.355Z,75.60
2018-04-15T23:01:15.815Z,74.80
2018-04-15T23:03:45.154Z,75.00
2018-04-15T23:06:14.656Z,72.80
2018-04-15T23:08:43.824Z,76.00
2018-04-15T23:11:13.007Z,77.60
2018-04-15T23:13:42.125Z,73.60
2018-04-15T23:16:11.506Z,75.40
2018-04-15T23:18:41.100Z,72.60
2018-04-15T23:21:10.021Z,73.40
2018-04-15T23:23:39.904Z,71.60
2018-04-15T23:26:09.198Z,69.20
2018-04-15T23:28:38.758Z,68.40
2018-04-15T23:31:08.471Z,65.40
2018-04-15T23:33:37.708Z,69.20
2018-04-15T23:36:06.877Z,66.40
2018-04-15T23:38:36.017Z,67.20
2018-04-15T23:41:05.089Z,64.80
2018-04-15T23:43:34.300Z,65.60
2018-04-15T23:46:03.678Z,64.20
2018-04-15T23:48:33.038Z,62.20
2018-04-15T23:51:02.536Z,64.00
2018-04-15T23:53:31.870Z,60.60
2018-04-15T23:56:02.239Z,63.20
2018-04-15T23:58:31.558Z,62.80
